createdAt,value
2022-10-26T00:02:57.137Z,9.03
2022-10-26T00:06:07.611Z,8.99
2022-10-26T00:09:09.140Z,8.95
2022-10-26T00:12:10.761Z,8.92
2022-10-26T00:15:12.291Z,8.87
2022-10-26T00:18:13.915Z,8.84
2022-10-26T00:21:16.219Z,8.81
2022-10-26T00:27:24.273Z,8.74
2022-10-26T00:30:26.153Z,8.73
2022-10-26T00:33:27.880Z,8.64
2022-10-26T00:36:29.455Z,8.59
2022-10-26T00:39:30.978Z,8.53
2022-10-26T00:42:32.516Z,8.48
2022-10-26T00:45:34.061Z,8.42
2022-10-26T00:48:50.070Z,8.36
2022-10-26T00:51:53.826Z,8.28
2022-10-26T00:54:55.923Z,8.24
2022-10-26T00:57:58.061Z,8.21
2022-10-26T01:00:59.641Z,8.19
2022-10-26T01:04:01.251Z,8.19
2022-10-26T01:07:05.124Z,8.19
2022-10-26T01:10:07.785Z,8.20
2022-10-26T01:13:10.848Z,8.18
2022-10-26T01:16:34.205Z,8.17
2022-10-26T01:19:54.577Z,8.13
2022-10-26T01:23:13.611Z,8.11
2022-10-26T01:30:17.724Z,8.08
2022-10-26T01:33:28.841Z,8.09
2022-10-26T01:36:53.056Z,8.09
2022-10-26T01:40:03.570Z,8.08
2022-10-26T01:43:08.359Z,8.05
2022-10-26T01:46:11.577Z,8.02
2022-10-26T01:49:16.602Z,8.02
2022-10-26T01:52:19.693Z,7.99
2022-10-26T01:55:45.949Z,7.99
2022-10-26T01:58:58.837Z,7.97
2022-10-26T02:02:38.704Z,7.97
2022-10-26T02:06:18.889Z,7.94
2022-10-26T02:09:26.513Z,7.92
2022-10-26T02:12:45.512Z,7.90
2022-10-26T02:15:56.715Z,7.89
2022-10-26T02:19:07.173Z,7.87
2022-10-26T02:22:18.725Z,7.85
2022-10-26T02:25:33.993Z,7.85
2022-10-26T02:28:39.003Z,7.83
2022-10-26T02:31:42.735Z,7.80
2022-10-26T02:34:47.747Z,7.76
2022-10-26T02:37:52.970Z,7.71
2022-10-26T02:40:56.403Z,7.66
2022-10-26T02:44:22.643Z,7.63
2022-10-26T02:47:26.238Z,7.58
2022-10-26T02:50:37.069Z,7.52
2022-10-26T02:53:57.878Z,7.48
2022-10-26T02:57:05.960Z,7.42
2022-10-26T03:00:14.613Z,7.35
2022-10-26T03:03:17.644Z,7.29
2022-10-26T03:06:23.258Z,7.25
2022-10-26T03:09:25.777Z,7.19
2022-10-26T03:12:27.393Z,7.14
2022-10-26T03:15:28.925Z,7.09
2022-10-26T03:18:30.464Z,7.03
2022-10-26T03:21:31.964Z,6.98
2022-10-26T03:24:33.568Z,6.95
2022-10-26T03:27:35.313Z,6.91
2022-10-26T03:30:38.069Z,6.92
2022-10-26T03:33:39.706Z,6.90
2022-10-26T03:36:41.231Z,6.87
2022-10-26T03:39:42.758Z,6.84
2022-10-26T03:42:44.421Z,6.86
2022-10-26T03:45:46.016Z,6.84
2022-10-26T03:48:47.536Z,6.84
2022-10-26T03:51:49.127Z,6.84
2022-10-26T03:54:51.764Z,6.80
2022-10-26T03:57:53.333Z,6.77
2022-10-26T04:00:54.834Z,6.74
2022-10-26T04:03:56.420Z,6.72
2022-10-26T04:06:58.160Z,6.68
2022-10-26T04:09:59.724Z,6.65
2022-10-26T04:13:01.407Z,6.66
2022-10-26T04:16:02.979Z,6.67
2022-10-26T04:19:04.528Z,6.65
2022-10-26T04:22:06.060Z,6.65
2022-10-26T04:25:08.332Z,6.65
2022-10-26T04:28:11.895Z,6.64
2022-10-26T04:31:13.449Z,6.63
2022-10-26T04:34:15.001Z,6.66
2022-10-26T04:37:16.533Z,6.65
2022-10-26T04:40:18.092Z,6.63
2022-10-26T04:43:19.637Z,6.59
2022-10-26T04:46:21.192Z,6.58
2022-10-26T04:49:22.720Z,6.58
2022-10-26T04:52:24.244Z,6.59
2022-10-26T04:55:25.909Z,6.61
2022-10-26T04:58:31.035Z,6.62
2022-10-26T05:01:32.715Z,6.60
2022-10-26T05:04:34.388Z,6.58
2022-10-26T05:07:35.960Z,6.56
2022-10-26T05:10:37.500Z,6.56
2022-10-26T05:13:39.050Z,6.53
2022-10-26T05:16:40.650Z,6.53
2022-10-26T05:19:42.365Z,6.50
2022-10-26T05:22:43.851Z,6.49
2022-10-26T05:25:45.957Z,6.48
2022-10-26T05:28:47.608Z,6.46
2022-10-26T05:31:49.132Z,6.44
2022-10-26T05:34:50.669Z,6.41
2022-10-26T05:37:52.895Z,6.40
2022-10-26T05:40:55.213Z,6.39
2022-10-26T05:43:56.787Z,6.39
2022-10-26T05:46:58.324Z,6.37
2022-10-26T05:49:59.827Z,6.35
2022-10-26T05:53:01.637Z,6.34
2022-10-26T05:56:06.046Z,6.32
2022-10-26T05:59:15.356Z,6.31
2022-10-26T06:02:43.909Z,6.29
2022-10-26T06:05:55.646Z,6.29
2022-10-26T06:08:57.501Z,6.29
2022-10-26T06:11:59.361Z,6.31
2022-10-26T06:15:01.131Z,6.32
2022-10-26T06:18:18.232Z,6.33
2022-10-26T06:21:37.185Z,6.33
2022-10-26T06:25:12.311Z,6.31
2022-10-26T06:28:16.657Z,6.27
2022-10-26T06:31:18.339Z,6.23
2022-10-26T06:34:34.543Z,6.22
2022-10-26T06:37:37.402Z,6.22
2022-10-26T06:40:42.619Z,6.21
2022-10-26T06:43:44.480Z,6.21
2022-10-26T06:46:51.131Z,6.24
2022-10-26T06:50:03.041Z,6.33
2022-10-26T06:53:41.800Z,6.40
2022-10-26T06:56:45.378Z,6.41
2022-10-26T06:59:57.777Z,6.45
2022-10-26T07:03:00.198Z,6.48
2022-10-26T07:06:01.891Z,6.54
2022-10-26T07:09:03.457Z,6.58
2022-10-26T07:12:05.518Z,6.63
2022-10-26T07:18:11.196Z,6.73
2022-10-26T07:21:12.814Z,6.77
2022-10-26T07:24:14.483Z,6.82
2022-10-26T07:27:16.425Z,6.86
2022-10-26T07:30:18.507Z,6.90
2022-10-26T07:33:20.081Z,6.93
2022-10-26T07:36:22.170Z,6.99
2022-10-26T07:39:23.777Z,7.03
2022-10-26T07:42:25.340Z,7.07
2022-10-26T07:45:28.543Z,7.11
2022-10-26T07:48:30.053Z,7.15
2022-10-26T07:51:31.606Z,7.18
2022-10-26T07:54:33.171Z,7.20
2022-10-26T07:57:34.774Z,7.23
2022-10-26T08:00:36.461Z,7.25
2022-10-26T08:03:38.265Z,7.27
2022-10-26T08:06:39.793Z,7.40
2022-10-26T08:09:41.357Z,7.51
2022-10-26T08:12:44.034Z,7.53
2022-10-26T08:15:45.596Z,7.54
2022-10-26T08:18:53.216Z,7.55
2022-10-26T08:21:54.892Z,7.57
2022-10-26T08:24:56.553Z,7.59
2022-10-26T08:28:02.459Z,7.62
2022-10-26T08:31:04.568Z,7.62
2022-10-26T08:34:06.141Z,7.65
2022-10-26T08:37:07.727Z,7.69
2022-10-26T08:40:15.732Z,7.75
2022-10-26T08:43:36.840Z,7.81
2022-10-26T08:46:45.730Z,7.85
2022-10-26T08:50:02.555Z,7.91
2022-10-26T08:53:13.345Z,7.99
2022-10-26T08:56:18.942Z,8.09
2022-10-26T08:59:42.722Z,8.19
2022-10-26T09:02:44.256Z,8.28
2022-10-26T09:05:51.628Z,8.40
2022-10-26T09:09:00.228Z,8.54
2022-10-26T09:12:10.048Z,8.68
2022-10-26T09:15:27.124Z,8.82
2022-10-26T09:18:53.537Z,8.97
2022-10-26T09:22:16.930Z,9.07
2022-10-26T09:25:23.612Z,9.14
2022-10-26T09:28:28.245Z,9.16
2022-10-26T09:31:32.968Z,9.17
2022-10-26T09:34:42.151Z,9.18
2022-10-26T09:38:09.725Z,9.17
2022-10-26T09:41:37.492Z,9.19
2022-10-26T09:44:45.228Z,9.19
2022-10-26T09:47:52.890Z,9.21
2022-10-26T09:51:00.488Z,9.24
2022-10-26T09:54:15.483Z,9.29
2022-10-26T09:57:20.231Z,9.36
2022-10-26T10:00:24.619Z,9.47
2022-10-26T10:03:29.329Z,9.62
2022-10-26T10:06:30.891Z,9.75
2022-10-26T10:09:32.415Z,9.91
2022-10-26T10:12:34.005Z,10.08
2022-10-26T10:15:35.568Z,10.24
2022-10-26T10:18:39.184Z,10.53
2022-10-26T10:21:50.226Z,10.77
2022-10-26T10:24:59.589Z,10.94
2022-10-26T10:28:02.971Z,11.08
2022-10-26T10:31:18.218Z,11.23
2022-10-26T10:34:22.386Z,11.37
2022-10-26T10:37:34.710Z,11.55
2022-10-26T10:40:36.908Z,11.70
2022-10-26T10:43:44.885Z,11.89
2022-10-26T10:46:47.248Z,12.09
2022-10-26T10:49:58.943Z,12.27
2022-10-26T10:53:41.966Z,12.46
2022-10-26T10:56:54.954Z,12.67
2022-10-26T10:59:56.460Z,12.83
2022-10-26T11:03:29.170Z,13.02
2022-10-26T11:06:32.447Z,13.20
2022-10-26T11:09:37.483Z,13.43
2022-10-26T11:12:51.774Z,13.64
2022-10-26T11:16:00.492Z,13.83
2022-10-26T11:19:11.020Z,14.02
2022-10-26T11:22:22.383Z,14.17
2022-10-26T11:26:05.950Z,14.34
2022-10-26T11:29:19.885Z,14.64
2022-10-26T11:32:30.810Z,14.74
2022-10-26T11:35:35.295Z,14.85
2022-10-26T11:38:56.920Z,14.95
2022-10-26T11:42:06.210Z,15.04
2022-10-26T11:45:23.215Z,15.14
2022-10-26T11:48:47.696Z,15.24
2022-10-26T11:52:04.125Z,15.31
2022-10-26T11:55:08.606Z,15.38
2022-10-26T11:58:12.080Z,15.42
2022-10-26T12:01:16.525Z,15.39
2022-10-26T12:04:22.306Z,15.30
2022-10-26T12:07:38.133Z,15.17
2022-10-26T12:10:43.493Z,15.07
2022-10-26T12:13:54.530Z,14.95
2022-10-26T12:17:10.771Z,14.90
2022-10-26T12:20:46.269Z,14.78
2022-10-26T12:23:55.332Z,14.66
2022-10-26T12:27:05.613Z,14.60
2022-10-26T12:30:19.182Z,14.62
2022-10-26T12:33:30.545Z,14.68
2022-10-26T12:36:48.507Z,14.75
2022-10-26T12:39:50.200Z,14.85
2022-10-26T12:42:51.758Z,14.90
2022-10-26T12:46:14.964Z,14.92
2022-10-26T12:49:55.480Z,15.01
2022-10-26T12:52:58.496Z,15.13
2022-10-26T12:56:06.034Z,15.23
2022-10-26T12:59:35.443Z,15.29
2022-10-26T13:03:14.407Z,15.31
2022-10-26T13:06:17.228Z,15.28
2022-10-26T13:09:25.628Z,15.26
2022-10-26T13:12:29.564Z,15.23
2022-10-26T13:16:00.191Z,15.14
2022-10-26T13:19:01.969Z,15.06
2022-10-26T13:22:03.771Z,15.02
2022-10-26T13:25:06.373Z,15.01
2022-10-26T13:28:32.588Z,15.06
2022-10-26T13:31:39.539Z,15.11
2022-10-26T13:34:43.604Z,15.16
2022-10-26T13:37:49.253Z,15.19
2022-10-26T13:40:59.714Z,15.23
2022-10-26T13:44:05.823Z,15.27
2022-10-26T13:47:16.510Z,15.28
2022-10-26T13:50:30.021Z,15.30
2022-10-26T13:53:50.579Z,15.28
2022-10-26T13:57:11.618Z,15.29
2022-10-26T14:00:23.223Z,15.27
2022-10-26T14:03:26.552Z,15.27
2022-10-26T14:06:32.121Z,15.27
2022-10-26T14:09:33.740Z,15.27
2022-10-26T14:12:35.398Z,15.28
2022-10-26T14:15:37.096Z,15.26
2022-10-26T14:18:39.224Z,15.26
2022-10-26T14:21:43.117Z,15.26
2022-10-26T14:25:00.453Z,15.26
2022-10-26T14:28:04.772Z,15.26
2022-10-26T14:31:20.793Z,15.27
2022-10-26T14:34:22.448Z,15.29
2022-10-26T14:37:33.508Z,15.33
2022-10-26T14:40:35.677Z,15.40
2022-10-26T14:43:37.667Z,15.42
2022-10-26T14:46:44.192Z,15.42
2022-10-26T14:49:46.557Z,15.40
2022-10-26T14:52:55.004Z,15.39
2022-10-26T14:55:59.565Z,15.38
2022-10-26T14:59:21.039Z,15.39
2022-10-26T15:02:24.602Z,15.39
2022-10-26T15:05:34.632Z,15.42
2022-10-26T15:08:52.317Z,15.44
2022-10-26T15:11:57.979Z,15.46
2022-10-26T15:15:08.345Z,15.50
2022-10-26T15:18:36.827Z,15.54
2022-10-26T15:21:48.818Z,15.52
2022-10-26T15:24:54.689Z,15.52
2022-10-26T15:28:11.048Z,15.49
2022-10-26T15:31:12.583Z,15.47
2022-10-26T15:34:14.640Z,15.44
2022-10-26T15:37:16.206Z,15.42
2022-10-26T15:40:18.930Z,15.43
2022-10-26T15:43:20.491Z,15.38
2022-10-26T15:46:22.691Z,15.36
2022-10-26T15:49:24.196Z,15.32
2022-10-26T15:52:25.748Z,15.30
2022-10-26T15:55:28.597Z,15.27
2022-10-26T15:58:31.763Z,15.22
2022-10-26T16:01:33.608Z,15.16
2022-10-26T16:04:35.245Z,15.07
2022-10-26T16:07:37.637Z,15.02
2022-10-26T16:10:39.207Z,14.93
2022-10-26T16:13:40.871Z,14.82
2022-10-26T16:16:42.377Z,14.74
2022-10-26T16:19:44.300Z,14.66
2022-10-26T16:22:48.422Z,14.71
2022-10-26T16:25:50.021Z,14.60
2022-10-26T16:28:51.966Z,14.53
2022-10-26T16:31:53.539Z,14.48
2022-10-26T16:34:55.046Z,14.41
2022-10-26T16:37:56.606Z,14.35
2022-10-26T16:41:17.359Z,14.28
2022-10-26T16:44:19.087Z,14.22
2022-10-26T16:50:27.702Z,14.13
2022-10-26T16:53:29.244Z,14.10
2022-10-26T16:56:30.829Z,14.08
2022-10-26T16:59:32.496Z,14.06
2022-10-26T17:02:34.668Z,14.05
2022-10-26T17:05:36.293Z,14.02
2022-10-26T17:08:37.836Z,14.00
2022-10-26T17:11:39.656Z,13.98
2022-10-26T17:14:41.292Z,13.95
2022-10-26T17:17:42.841Z,13.93
2022-10-26T17:20:51.792Z,13.93
2022-10-26T17:23:53.300Z,13.88
2022-10-26T17:26:54.854Z,13.87
2022-10-26T17:29:56.429Z,13.85
2022-10-26T17:32:58.076Z,13.81
2022-10-26T17:35:59.940Z,13.77
2022-10-26T17:39:01.535Z,13.72
2022-10-26T17:42:03.529Z,13.67
2022-10-26T17:45:05.341Z,13.63
2022-10-26T17:48:06.880Z,13.61
2022-10-26T17:51:15.236Z,13.59
2022-10-26T17:57:23.788Z,13.59
2022-10-26T18:00:25.286Z,13.59
2022-10-26T18:03:26.818Z,13.60
2022-10-26T18:06:28.425Z,13.61
2022-10-26T18:09:30.009Z,13.59
2022-10-26T18:12:32.540Z,13.57
2022-10-26T18:15:35.370Z,13.56
2022-10-26T18:18:37.897Z,13.63
2022-10-26T18:21:39.634Z,13.65
2022-10-26T18:24:41.232Z,13.62
2022-10-26T18:27:42.770Z,13.61
2022-10-26T18:30:44.282Z,13.57
2022-10-26T18:33:46.623Z,13.56
2022-10-26T18:36:48.142Z,13.53
2022-10-26T18:39:49.642Z,13.50
2022-10-26T18:42:51.231Z,13.47
2022-10-26T18:45:53.949Z,13.41
2022-10-26T18:48:56.620Z,13.40
2022-10-26T18:51:59.207Z,13.36
2022-10-26T18:55:00.716Z,13.34
2022-10-26T18:58:02.233Z,13.30
2022-10-26T19:01:26.361Z,13.26
2022-10-26T19:04:28.136Z,13.21
2022-10-26T19:07:30.373Z,13.20
2022-10-26T19:13:39.252Z,13.11
2022-10-26T19:16:45.695Z,13.06
2022-10-26T19:19:48.230Z,13.03
2022-10-26T19:22:52.938Z,13.00
2022-10-26T19:25:55.989Z,12.97
2022-10-26T19:29:03.987Z,12.97
2022-10-26T19:32:05.755Z,12.96
2022-10-26T19:35:07.704Z,12.94
2022-10-26T19:38:09.291Z,12.93
2022-10-26T19:41:13.471Z,12.92
2022-10-26T19:44:15.801Z,12.90
2022-10-26T19:47:18.160Z,12.90
2022-10-26T19:50:19.781Z,12.91
2022-10-26T19:53:22.021Z,12.88
2022-10-26T19:56:23.548Z,12.89
2022-10-26T19:59:25.824Z,12.90
2022-10-26T20:02:27.389Z,12.88
2022-10-26T20:05:28.927Z,12.87
2022-10-26T20:08:30.452Z,12.89
2022-10-26T20:11:36.610Z,12.89
2022-10-26T20:14:40.971Z,12.89
2022-10-26T20:20:49.004Z,12.89
2022-10-26T20:23:50.633Z,12.92
2022-10-26T20:26:52.174Z,12.93
2022-10-26T20:29:53.774Z,12.93
2022-10-26T20:32:57.326Z,12.94
2022-10-26T20:35:59.571Z,12.96
2022-10-26T20:39:01.584Z,12.97
2022-10-26T20:42:04.568Z,13.00
2022-10-26T20:45:07.652Z,13.03
2022-10-26T20:48:11.735Z,13.03
2022-10-26T20:51:22.205Z,13.03
2022-10-26T20:54:38.428Z,13.04
2022-10-26T20:57:45.040Z,13.04
2022-10-26T21:00:55.590Z,13.04
2022-10-26T21:03:59.440Z,13.01
2022-10-26T21:07:00.949Z,12.97
2022-10-26T21:10:02.568Z,12.95
2022-10-26T21:13:04.161Z,12.94
2022-10-26T21:16:06.935Z,12.93
2022-10-26T21:19:08.517Z,12.93
2022-10-26T21:22:10.136Z,12.93
2022-10-26T21:25:11.760Z,12.90
2022-10-26T21:28:13.272Z,12.92
2022-10-26T21:31:17.348Z,12.92
2022-10-26T21:34:18.893Z,12.91
2022-10-26T21:37:20.407Z,12.91
2022-10-26T21:40:22.072Z,12.89
2022-10-26T21:43:23.589Z,12.90
2022-10-26T21:46:25.113Z,12.89
2022-10-26T21:49:26.648Z,12.90
2022-10-26T21:52:28.771Z,12.90
2022-10-26T21:55:30.312Z,12.90
2022-10-26T21:58:32.526Z,12.92
2022-10-26T22:01:34.202Z,12.93
2022-10-26T22:04:35.799Z,12.94
2022-10-26T22:07:37.348Z,12.93
2022-10-26T22:10:38.837Z,12.90
2022-10-26T22:13:40.745Z,12.89
2022-10-26T22:16:42.333Z,13.02
2022-10-26T22:19:43.882Z,12.99
2022-10-26T22:22:45.409Z,12.98
2022-10-26T22:25:46.913Z,12.97
2022-10-26T22:28:51.245Z,12.95
2022-10-26T22:31:52.772Z,12.91
2022-10-26T22:35:10.494Z,12.87
2022-10-26T22:38:15.867Z,12.84
2022-10-26T22:41:18.645Z,12.81
2022-10-26T22:44:20.163Z,12.77
2022-10-26T22:47:21.764Z,12.75
2022-10-26T22:50:23.250Z,12.74
2022-10-26T22:53:25.296Z,12.73
2022-10-26T22:56:28.049Z,12.71
2022-10-26T22:59:29.725Z,12.68
2022-10-26T23:02:31.259Z,12.66
2022-10-26T23:05:32.808Z,12.64
2022-10-26T23:08:34.636Z,12.61
2022-10-26T23:11:36.258Z,12.58
2022-10-26T23:14:37.776Z,12.58
2022-10-26T23:17:39.309Z,12.56
2022-10-26T23:20:40.848Z,12.53
2022-10-26T23:23:42.568Z,12.49
2022-10-26T23:26:44.101Z,12.49
2022-10-26T23:29:45.610Z,12.47
2022-10-26T23:32:47.266Z,12.46
2022-10-26T23:35:50.812Z,12.44
2022-10-26T23:38:52.572Z,12.43
2022-10-26T23:41:54.539Z,12.43
2022-10-26T23:44:56.104Z,12.41
2022-10-26T23:47:57.611Z,12.40
2022-10-26T23:50:59.163Z,12.39
2022-10-26T23:54:00.704Z,12.37
2022-10-26T23:57:02.440Z,12.35
